MST,Max TemperatureF,Mean TemperatureF,Min TemperatureF,Max Dew PointF,MeanDew PointF,Min DewpointF,Max Humidity, Mean Humidity, Min Humidity, Max Sea Level PressureIn, Mean Sea Level PressureIn, Min Sea Level PressureIn, Max VisibilityMiles, Mean VisibilityMiles, Min VisibilityMiles, Max Wind SpeedMPH, Mean Wind SpeedMPH, Max Gust SpeedMPH,PrecipitationIn, CloudCover, Events, WindDirDegrees
2011-11-1,62,44,26,28,23,18,86,50,19,30.20,30.11,29.99,10,10,10,18,5,23,0.00,0,,245
2011-11-2,44,34,24,27,18,10,69,51,31,30.45,30.23,29.95,10,10,2,15,8,24,0.00,2,,307
2011-11-3,51,33,15,19,14,10,79,52,21,30.46,30.36,30.24,10,10,10,12,5,,0.00,0,,318
2011-11-4,53,36,19,25,18,12,80,50,26,30.22,30.10,29.93,10,10,10,9,3,,0.00,0,,292
2011-11-5,48,39,28,32,23,16,87,60,46,29.96,29.79,29.61,10,9,1,44,13,82,0.05,6,,236
2011-11-6,44,32,19,19,17,14,80,57,34,30.07,30.02,29.97,10,10,10,12,7,,0.00,0,,187
2011-11-7,48,34,19,28,22,18,93,61,34,30.06,29.98,29.89,10,10,10,17,4,22,0.00,4,Thunderstorm,168
2011-11-8,41,34,26,27,25,21,93,77,49,30.27,30.10,29.94,10,8,1,14,6,,0.07,6,,250
2011-11-9,42,28,15,21,16,9,93,65,25,30.51,30.44,30.34,10,10,7,10,4,,0.00,0,,6
2011-11-10,46,30,15,21,14,9,80,56,22,30.56,30.46,30.35,10,10,10,7,3,,0.00,0,,18
2011-11-11,46,32,17,21,17,10,86,59,27,30.32,30.18,30.06,10,10,10,10,4,,0.00,0,,355
2011-11-12,55,40,26,28,21,16,74,45,25,30.05,29.98,29.86,10,10,10,36,9,46,0.00,4,,224
2011-11-13,42,40,37,37,29,25,87,68,53,30.00,29.95,29.88,10,10,10,14,8,18,0.01,7,,226
2011-11-14,48,37,26,34,26,21,93,70,40,30.03,29.98,29.93,10,10,10,16,7,22,0.00,1,,233
2011-11-15,51,34,17,28,21,12,86,59,24,30.06,30.01,29.96,10,10,10,14,5,21,0.00,1,,254
2011-11-16,48,34,19,25,18,10,86,55,29,30.32,30.17,30.03,10,10,10,12,3,,0.00,0,,5
2011-11-17,50,36,21,19,13,9,74,44,22,30.34,30.27,30.14,10,10,10,14,4,18,0.00,0,,222
2011-11-18,53,36,19,27,19,12,86,55,28,30.09,29.98,29.90,10,10,10,14,5,21,0.00,0,,223
2011-11-19,53,40,28,19,15,7,55,37,22,30.03,29.94,29.87,10,10,10,18,7,26,0.00,0,,217
2011-11-20,53,40,26,25,20,16,69,50,28,30.18,30.13,30.05,10,10,10,18,5,24,0.00,2,,142
2011-11-21,51,38,24,30,24,14,80,62,24,30.15,30.11,30.03,10,10,10,15,5,20,0.00,3,,308
2011-11-22,50,34,19,28,21,7,93,66,20,30.40,30.32,30.24,10,10,10,10,3,,0.00,1,,317
2011-11-23,59,38,17,25,16,7,86,50,14,30.46,30.38,30.29,10,10,9,8,5,,0.00,0,,39
2011-11-24,55,36,17,21,15,-6,79,46,21,30.30,30.23,30.15,10,10,10,15,7,18,0.00,0,,327
2011-11-25,44,34,24,36,28,18,93,76,42,30.12,30.00,29.92,10,9,1,14,7,17,0.10,4,,324
2011-11-26,39,29,19,19,10,3,80,49,24,30.51,30.35,30.09,10,10,10,29,12,38,0.00,0,,349
2011-11-27,50,29,8,16,10,3,85,51,22,30.58,30.52,30.44,10,10,10,8,3,,0.00,0,,354
2011-11-28,53,35,17,19,16,10,79,54,24,30.45,30.38,30.31,10,10,8,12,5,,0.00,0,,20
2011-11-29,51,37,23,21,18,12,69,46,26,30.42,30.35,30.32,10,10,10,12,6,,0.00,1,,296
2011-11-30,51,34,17,21,16,10,86,54,24,30.32,30.15,29.96,10,10,10,10,5,16,0.00,0,,265